createdAt,value
2023-03-16T00:03:59.912Z,37.90
2023-03-16T00:09:02.736Z,38.00
2023-03-16T00:14:06.705Z,37.80
2023-03-16T00:19:10.924Z,37.70
2023-03-16T00:24:18.021Z,37.70
2023-03-16T00:29:22.578Z,37.70
2023-03-16T00:34:29.985Z,37.70
2023-03-16T00:39:35.764Z,37.70
2023-03-16T00:44:38.901Z,37.90
2023-03-16T00:49:44.361Z,37.70
2023-03-16T00:54:48.085Z,37.70
2023-03-16T00:59:50.891Z,37.80
2023-03-16T01:04:55.409Z,37.50
2023-03-16T01:09:58.307Z,37.80
2023-03-16T01:15:01.196Z,37.50
2023-03-16T01:20:11.968Z,37.80
2023-03-16T01:25:15.113Z,37.70
2023-03-16T01:30:18.067Z,37.70
2023-03-16T01:35:22.446Z,37.80
2023-03-16T01:40:25.401Z,37.80
2023-03-16T01:46:14.201Z,37.70
2023-03-16T01:51:21.576Z,37.60
2023-03-16T01:56:28.870Z,37.70
2023-03-16T02:01:32.077Z,37.70
2023-03-16T02:06:37.129Z,37.70
2023-03-16T02:11:40.128Z,37.60
2023-03-16T02:16:43.229Z,37.50
2023-03-16T02:21:54.384Z,37.50
2023-03-16T02:26:59.289Z,37.60
2023-03-16T02:32:05.460Z,37.60
2023-03-16T02:37:08.815Z,37.50
2023-03-16T02:42:14.604Z,37.60
2023-03-16T02:47:25.562Z,37.50
2023-03-16T02:52:28.375Z,37.60
2023-03-16T02:57:31.686Z,37.50
2023-03-16T03:02:35.896Z,37.60
2023-03-16T03:07:38.782Z,37.50
2023-03-16T03:12:42.387Z,37.60
2023-03-16T03:17:46.853Z,37.40
2023-03-16T03:22:52.540Z,37.60
2023-03-16T03:27:55.779Z,37.60
2023-03-16T03:33:00.050Z,37.40
2023-03-16T03:38:02.970Z,37.40
2023-03-16T03:43:06.347Z,37.50
2023-03-16T03:48:10.824Z,37.40
2023-03-16T03:53:13.660Z,37.50
2023-03-16T03:58:16.637Z,37.50
2023-03-16T04:03:21.748Z,37.20
2023-03-16T04:08:24.635Z,37.40
2023-03-16T04:13:27.864Z,37.50
2023-03-16T04:18:38.488Z,37.50
2023-03-16T04:23:42.535Z,37.50
2023-03-16T04:28:45.370Z,37.50
2023-03-16T04:33:49.566Z,37.50
2023-03-16T04:38:52.827Z,37.40
2023-03-16T04:43:55.643Z,37.40
2023-03-16T04:48:59.840Z,37.30
2023-03-16T04:54:02.673Z,37.40
2023-03-16T04:59:05.641Z,37.30
2023-03-16T05:04:13.147Z,37.40
2023-03-16T05:09:20.695Z,37.70
2023-03-16T05:14:23.621Z,37.70
2023-03-16T05:19:27.884Z,37.70
2023-03-16T05:24:30.754Z,37.70
2023-03-16T05:29:34.365Z,37.40
2023-03-16T05:34:38.898Z,37.60
2023-03-16T05:39:41.790Z,37.40
2023-03-16T05:44:45.093Z,37.50
2023-03-16T05:49:49.359Z,37.50
2023-03-16T05:54:52.246Z,37.30
2023-03-16T05:59:55.043Z,37.30
2023-03-16T06:04:59.335Z,37.30
2023-03-16T06:10:02.829Z,37.50
2023-03-16T06:15:07.348Z,37.60
2023-03-16T06:20:13.814Z,37.80
2023-03-16T06:25:17.119Z,37.50
2023-03-16T06:30:20.129Z,37.60
2023-03-16T06:35:24.311Z,37.40
2023-03-16T06:40:27.429Z,37.40
2023-03-16T06:45:30.496Z,37.40
2023-03-16T06:50:34.644Z,37.50
2023-03-16T06:55:37.443Z,37.40
2023-03-16T07:00:40.266Z,37.30
2023-03-16T07:05:44.466Z,37.30
2023-03-16T07:10:47.390Z,37.10
2023-03-16T07:15:52.148Z,37.10
2023-03-16T07:20:56.377Z,37.20
2023-03-16T07:25:59.218Z,37.10
2023-03-16T07:31:04.045Z,37.00
2023-03-16T07:36:10.649Z,37.10
2023-03-16T07:41:14.070Z,37.10
2023-03-16T07:46:16.980Z,37.00
2023-03-16T07:51:21.555Z,36.90
2023-03-16T07:56:24.421Z,36.90
2023-03-16T08:01:27.266Z,36.90
2023-03-16T08:06:31.459Z,37.00
2023-03-16T08:11:34.361Z,36.90
2023-03-16T08:16:37.488Z,37.00
2023-03-16T08:21:59.767Z,37.20
2023-03-16T08:27:03.863Z,37.80
2023-03-16T08:32:07.603Z,38.30
2023-03-16T08:37:12.459Z,38.10
2023-03-16T08:42:16.768Z,38.90
2023-03-16T08:47:19.718Z,38.50
2023-03-16T08:52:24.716Z,38.90
2023-03-16T08:57:27.862Z,39.00
2023-03-16T09:02:31.495Z,39.60
2023-03-16T09:07:36.312Z,39.60
2023-03-16T09:12:40.805Z,39.20
2023-03-16T09:17:45.213Z,38.80
2023-03-16T09:22:49.529Z,38.30
2023-03-16T09:27:52.657Z,38.10
2023-03-16T09:32:56.027Z,37.70
2023-03-16T09:38:07.547Z,37.90
2023-03-16T09:43:20.138Z,38.20
2023-03-16T09:48:25.281Z,38.30
2023-03-16T09:53:31.775Z,36.90
2023-03-16T09:58:34.783Z,37.60
2023-03-16T10:03:57.166Z,37.80
2023-03-16T10:09:08.259Z,37.60
2023-03-16T10:14:17.730Z,37.40
2023-03-16T10:19:24.531Z,37.40
2023-03-16T10:24:39.714Z,37.70
2023-03-16T10:29:42.635Z,37.10
2023-03-16T10:34:49.488Z,37.20
2023-03-16T10:39:56.392Z,37.00
2023-03-16T10:45:01.901Z,37.40
2023-03-16T10:50:14.486Z,37.40
2023-03-16T10:55:21.561Z,37.20
2023-03-16T11:00:28.949Z,37.20
2023-03-16T11:05:33.333Z,37.40
2023-03-16T11:10:49.397Z,37.30
2023-03-16T11:16:01.773Z,37.60
2023-03-16T11:21:09.564Z,37.30
2023-03-16T11:26:22.768Z,37.00
2023-03-16T11:31:30.071Z,37.00
2023-03-16T11:36:41.709Z,37.40
2023-03-16T11:41:53.455Z,36.50
2023-03-16T11:47:01.533Z,37.00
2023-03-16T11:52:10.630Z,36.60
2023-03-16T11:57:27.651Z,36.30
2023-03-16T12:02:41.959Z,36.50
2023-03-16T12:07:53.460Z,37.00
2023-03-16T12:13:33.168Z,36.40
2023-03-16T12:18:41.633Z,36.50
2023-03-16T12:23:52.361Z,36.50
2023-03-16T12:28:57.511Z,36.50
2023-03-16T12:34:08.457Z,36.30
2023-03-16T12:39:18.749Z,36.20
2023-03-16T12:44:24.817Z,36.10
2023-03-16T12:49:29.351Z,36.00
2023-03-16T12:54:33.429Z,36.10
2023-03-16T12:59:40.344Z,36.10
2023-03-16T13:04:45.510Z,36.20
2023-03-16T13:09:53.185Z,36.20
2023-03-16T13:14:57.784Z,35.80
2023-03-16T13:20:06.920Z,36.50
2023-03-16T13:25:18.084Z,36.70
2023-03-16T13:30:25.231Z,36.80
2023-03-16T13:35:31.773Z,36.50
2023-03-16T13:40:35.748Z,36.70
2023-03-16T13:45:40.343Z,36.70
2023-03-16T13:50:44.802Z,36.60
2023-03-16T13:55:48.861Z,36.80
2023-03-16T14:00:56.728Z,36.70
2023-03-16T14:05:59.748Z,36.40
2023-03-16T14:11:03.889Z,36.60
2023-03-16T14:16:14.808Z,36.40
2023-03-16T14:21:19.154Z,36.30
2023-03-16T14:26:22.739Z,36.30
2023-03-16T14:31:35.804Z,35.90
2023-03-16T14:36:39.895Z,35.90
2023-03-16T14:41:43.501Z,35.80
2023-03-16T14:46:47.822Z,36.00
2023-03-16T14:51:52.650Z,36.00
2023-03-16T14:56:57.238Z,35.80
2023-03-16T15:02:02.346Z,35.70
2023-03-16T15:07:20.149Z,35.30
2023-03-16T15:12:25.061Z,34.90
2023-03-16T15:17:29.558Z,34.90
2023-03-16T15:22:34.005Z,35.20
2023-03-16T15:27:37.407Z,35.20
2023-03-16T15:32:41.657Z,35.00
2023-03-16T15:37:44.860Z,35.40
2023-03-16T15:42:47.772Z,35.30
2023-03-16T15:47:53.185Z,35.10
2023-03-16T15:52:59.038Z,35.00
2023-03-16T15:58:03.668Z,35.20
2023-03-16T16:03:18.533Z,35.20
2023-03-16T16:08:21.832Z,35.00
2023-03-16T16:13:37.428Z,35.40
2023-03-16T16:18:46.566Z,35.10
2023-03-16T16:23:49.736Z,35.20
2023-03-16T16:28:53.044Z,35.30
2023-03-16T16:33:59.167Z,35.10
2023-03-16T16:39:05.205Z,35.10
2023-03-16T16:44:16.026Z,34.20
2023-03-16T16:49:23.703Z,33.00
2023-03-16T16:54:28.888Z,33.10
2023-03-16T16:59:33.483Z,34.20
2023-03-16T17:04:38.131Z,34.40
2023-03-16T17:09:41.111Z,34.60
2023-03-16T17:14:44.139Z,34.60
2023-03-16T17:19:48.544Z,34.80
2023-03-16T17:24:51.857Z,35.00
2023-03-16T17:29:55.101Z,34.90
2023-03-16T17:34:59.227Z,35.10
2023-03-16T17:40:02.908Z,35.10
2023-03-16T17:45:10.722Z,35.30
2023-03-16T17:50:24.368Z,35.40
2023-03-16T17:55:27.266Z,35.60
2023-03-16T18:00:32.495Z,35.60
2023-03-16T18:05:37.324Z,35.80
2023-03-16T18:10:41.437Z,35.90
2023-03-16T18:15:45.066Z,35.80
2023-03-16T18:20:50.897Z,36.00
2023-03-16T18:25:55.865Z,36.10
2023-03-16T18:30:59.461Z,36.00
2023-03-16T18:36:06.702Z,36.20
2023-03-16T18:41:15.815Z,36.40
2023-03-16T18:46:24.516Z,36.30
2023-03-16T18:51:29.658Z,36.50
2023-03-16T18:56:32.863Z,36.40
2023-03-16T19:01:37.848Z,36.50
2023-03-16T19:06:42.058Z,36.40
2023-03-16T19:11:46.138Z,36.60
2023-03-16T19:16:49.036Z,36.50
2023-03-16T19:21:55.197Z,36.60
2023-03-16T19:26:58.716Z,37.30
2023-03-16T19:32:02.364Z,37.50
2023-03-16T19:37:07.114Z,37.40
2023-03-16T19:42:18.495Z,37.50
2023-03-16T19:47:26.472Z,37.50
2023-03-16T19:52:32.662Z,37.50
2023-03-16T19:57:35.581Z,37.50
2023-03-16T20:02:40.344Z,37.70
2023-03-16T20:07:44.631Z,37.70
2023-03-16T20:12:48.517Z,37.70
2023-03-16T20:17:51.862Z,37.80
2023-03-16T20:22:59.216Z,37.70
2023-03-16T20:28:03.822Z,37.80
2023-03-16T20:33:06.741Z,37.80
2023-03-16T20:38:14.522Z,38.00
2023-03-16T20:43:23.610Z,37.90
2023-03-16T20:48:27.476Z,38.00
2023-03-16T20:53:31.823Z,37.90
2023-03-16T20:58:35.524Z,38.00
2023-03-16T21:03:39.424Z,38.00
2023-03-16T21:08:43.625Z,37.90
2023-03-16T21:13:46.918Z,38.00
2023-03-16T21:18:50.317Z,38.10
2023-03-16T21:23:54.513Z,38.20
2023-03-16T21:28:58.906Z,38.00
2023-03-16T21:34:01.869Z,38.10
2023-03-16T21:39:15.905Z,38.30
2023-03-16T21:44:19.611Z,38.20
2023-03-16T21:49:22.495Z,38.40
2023-03-16T21:54:27.563Z,38.30
2023-03-16T21:59:30.527Z,38.30
2023-03-16T22:04:33.386Z,38.30
2023-03-16T22:09:37.522Z,38.30
2023-03-16T22:14:40.913Z,38.20
2023-03-16T22:19:43.972Z,38.20
2023-03-16T22:24:48.158Z,38.40
2023-03-16T22:29:51.162Z,38.30
2023-03-16T22:34:56.106Z,38.30
2023-03-16T22:40:02.075Z,38.40
2023-03-16T22:45:07.551Z,38.20
2023-03-16T22:50:14.766Z,38.50
2023-03-16T22:55:20.866Z,38.50
2023-03-16T23:00:28.658Z,38.40
2023-03-16T23:05:32.002Z,38.50
2023-03-16T23:10:37.134Z,38.30
2023-03-16T23:15:40.019Z,38.50
2023-03-16T23:20:43.491Z,38.40
2023-03-16T23:25:48.665Z,38.40
2023-03-16T23:30:51.619Z,38.40
2023-03-16T23:35:54.439Z,38.50
2023-03-16T23:40:58.632Z,38.50
2023-03-16T23:46:01.502Z,38.40
2023-03-16T23:51:04.580Z,38.60
2023-03-16T23:56:11.612Z,38.30
